CheckWX is a tool to help pilots better visualize weather data.  It is not intended as a substitute for an official pre-flight weather briefing.

04:22:15 UTC

WSAP TAF
Paya Lebar Air Base Airport
Singapore
TAF WSAP 092300Z 1000/1106 03011KT 9999 SCT012 BKN015 TEMPO 1004/1008 4000 SHRA FEW010 SCT012TCU BKN015

Dec-10@
00:00 UTC

Dec-10 @ 00:00 UTC

Dec-11@
06:00 UTC

Dec-11 @ 06:00 UTC

TAF WSAP 092300Z 1000/1106 03011KT 9999 SCT012 BKN015
Wind
  • 030° at 11 KTS
Cloud Levels
  • Scattered at 1,200' AGL
  • Broken at 1,500' AGL

Dec-10@
04:00 UTC

Dec-10 @ 04:00 UTC

Dec-10@
08:00 UTC

Dec-10 @ 08:00 UTC

TEMPO 1004/1008 4000 SHRA FEW010 SCT012TCU BKN015

Temporary

Temporary Changes expected for less than half the time period

Conditions
Rain
Cloud Levels
  • Few at 1,000' AGL
  • Scattered at 1,200' AGL
  • Broken at 1,500' AGL